Time;durP1;ratioP1;P1;durP2;ratioP2;P2;SDS_P1;SDS_P2;PMS_P1;PMS_P2;Temp;Humidity;BMP_temperature;BMP_pressure;BME280_temperature;BME280_humidity;BME280_pressure;Samples;Min_cycle;Max_cycle;Signal;HPM_P1;HPM_P2
2023/04/08 00:01:52;;;;;;;;;;;;;;;14.01;100.00;102102.00;5074095;28;19924;-56
2023/04/08 00:04:17;;;;;;;;;;;;;;;13.84;100.00;102105.91;5073764;28;19924;-54
2023/04/08 00:06:43;;;;;;;;;;;;;;;14.00;100.00;102107.56;5074236;28;19928;-56
2023/04/08 00:09:08;;;;;;;;;;;;;;;13.90;100.00;102100.63;5074134;28;19980;-51
2023/04/08 00:11:33;;;;;;;;;;;;;;;13.69;100.00;102108.59;5062940;28;19917;-53
2023/04/08 00:13:59;;;;;;;;;;;;;;;13.97;100.00;102116.00;5073061;28;19931;-50
2023/04/08 00:16:24;;;;;;;;;;;;;;;13.89;100.00;102108.84;5074213;28;19917;-54
2023/04/08 00:18:50;;;;;;;;;;;;;;;13.82;100.00;102106.06;5073588;28;19955;-53
2023/04/08 00:21:16;;;;;;;;;;;;;;;13.86;100.00;102106.53;5071381;28;19928;-50
2023/04/08 00:23:42;;;;;;;;;;;;;;;13.58;100.00;102102.63;5073117;28;19917;-53
2023/04/08 00:26:07;;;;;;;;;;;;;;;13.74;100.00;102106.19;5073138;28;19978;-55
2023/04/08 00:28:33;;;;;;;;;;;;;;;13.76;100.00;102107.66;5070209;28;19923;-55
2023/04/08 00:30:58;;;;;;;;;;;;;;;13.77;100.00;102105.81;5073773;28;19947;-55
2023/04/08 00:33:24;;;;;;;;;;;;;;;13.70;100.00;102108.38;5070735;28;19944;-55
2023/04/08 00:35:50;;;;;;;;;;;;;;;13.64;100.00;102109.13;5071941;28;19921;-56
2023/04/08 00:38:15;;;;;;;;;;;;;;;13.52;100.00;102110.63;5073358;28;19979;-52
2023/04/08 00:40:41;;;;;;;;;;;;;;;13.39;100.00;102113.91;5056626;28;19917;-55
2023/04/08 00:43:06;;;;;;;;;;;;;;;13.36;100.00;102112.41;5091031;28;19987;-52
2023/04/08 00:45:32;;;;;;;;;;;;;;;13.30;100.00;102116.66;5091037;28;19924;-50
2023/04/08 00:47:58;;;;;;;;;;;;;;;13.07;100.00;102116.72;5092566;28;19923;-53
2023/04/08 00:50:23;;;;;;;;;;;;;;;13.17;100.00;102113.78;5091952;28;19918;-57
2023/04/08 00:52:48;;;;;;;;;;;;;;;13.19;100.00;102114.44;5092726;28;19926;-52
2023/04/08 00:55:15;;;;;;;;;;;;;;;13.21;100.00;102115.06;5091420;28;19935;-54
2023/04/08 00:57:40;;;;;;;;;;;;;;;13.26;100.00;102112.69;5091750;28;19938;-52
2023/04/08 01:00:08;;;;;;;;;;;;;;;13.16;100.00;102109.44;5092309;28;19941;-55
2023/04/08 01:02:41;;;;;;;;;;;;;;;13.12;100.00;102111.63;5093230;28;19917;-56
2023/04/08 01:05:07;;;;;;;;;;;;;;;13.12;100.00;102116.16;5091558;28;20003;-55
2023/04/08 01:07:35;;;;;;;;;;;;;;;13.14;100.00;102108.75;5092913;28;19924;-55
2023/04/08 01:10:10;;;;;;;;;;;;;;;13.10;100.00;102110.13;5091530;28;19952;-56
2023/04/08 01:12:39;;;;;;;;;;;;;;;12.98;100.00;102110.56;5092569;28;19946;-56
2023/04/08 01:15:06;;;;;;;;;;;;;;;12.83;100.00;102126.63;5091563;28;19992;-53
2023/04/08 01:17:33;;;;;;;;;;;;;;;12.74;100.00;102120.47;5091468;28;19935;-53
2023/04/08 01:20:00;;;;;;;;;;;;;;;12.86;100.00;102125.41;5091024;28;21344;-55
2023/04/08 01:22:25;;;;;;;;;;;;;;;12.85;100.00;102119.22;5092452;28;19917;-54
2023/04/08 01:24:56;;;;;;;;;;;;;;;12.89;100.00;102117.84;5092925;28;19928;-56
2023/04/08 01:27:22;;;;;;;;;;;;;;;13.03;100.00;102116.22;5091746;28;19936;-55
2023/04/08 01:29:47;;;;;;;;;;;;;;;13.05;100.00;102116.88;5093052;28;19916;-55
2023/04/08 01:32:13;;;;;;;;;;;;;;;12.96;100.00;102120.66;5093300;28;19927;-55
2023/04/08 01:34:40;;;;;;;;;;;;;;;12.94;100.00;102122.69;5093087;28;19967;-55
2023/04/08 01:37:06;;;;;;;;;;;;;;;12.92;100.00;102116.66;5090062;28;19917;-50
2023/04/08 01:39:32;;;;;;;;;;;;;;;12.90;100.00;102119.53;5093116;28;19916;-56
2023/04/08 01:41:58;;;;;;;;;;;;;;;12.87;100.00;102124.41;5092064;28;19994;-52
2023/04/08 01:44:25;;;;;;;;;;;;;;;12.87;100.00;102127.09;5093044;28;19944;-56
2023/04/08 01:46:51;;;;;;;;;;;;;;;12.85;100.00;102124.59;5091717;28;19924;-56
2023/04/08 01:49:19;;;;;;;;;;;;;;;12.88;100.00;102136.81;5091831;28;19968;-54
2023/04/08 01:51:45;;;;;;;;;;;;;;;12.84;100.00;102135.50;5092559;28;19927;-54
2023/04/08 01:54:11;;;;;;;;;;;;;;;12.79;100.00;102136.03;5091701;28;19924;-55
2023/04/08 01:56:38;;;;;;;;;;;;;;;12.60;100.00;102129.28;5092053;28;19916;-51
2023/04/08 01:59:07;;;;;;;;;;;;;;;12.61;100.00;102129.13;5089843;28;19916;-51
2023/04/08 02:01:34;;;;;;;;;;;;;;;12.58;100.00;102128.63;5105222;28;19920;-50
2023/04/08 02:04:00;;;;;;;;;;;;;;;12.64;100.00;102135.16;5093174;28;19921;-54
2023/04/08 02:06:28;;;;;;;;;;;;;;;12.62;100.00;102124.56;5096260;28;19920;-53
2023/04/08 02:08:53;;;;;;;;;;;;;;;12.60;100.00;102131.97;5094330;28;19938;-52
2023/04/08 02:11:20;;;;;;;;;;;;;;;12.57;100.00;102137.69;5094706;28;19912;-55
2023/04/08 02:13:45;;;;;;;;;;;;;;;12.60;100.00;102132.81;5095020;28;19966;-53
2023/04/08 02:16:30;;;;;;;;;;;;;;;12.53;100.00;102131.00;5095523;28;20019;-55
2023/04/08 02:19:08;;;;;;;;;;;;;;;12.49;100.00;102130.53;5095641;28;19984;-57
2023/04/08 02:21:42;;;;;;;;;;;;;;;12.47;100.00;102125.34;5094140;28;19924;-52
2023/04/08 02:24:11;;;;;;;;;;;;;;;12.38;100.00;102129.06;5094443;28;19920;-54
2023/04/08 02:26:37;;;;;;;;;;;;;;;12.27;100.00;102132.97;5094663;28;19921;-55
2023/04/08 02:29:04;;;;;;;;;;;;;;;12.26;100.00;102133.16;5094986;28;19916;-52
2023/04/08 02:31:29;;;;;;;;;;;;;;;12.06;100.00;102133.59;5090502;28;19916;-52
2023/04/08 02:33:56;;;;;;;;;;;;;;;12.12;100.00;102134.75;5093896;28;19912;-53
2023/04/08 02:36:22;;;;;;;;;;;;;;;11.98;100.00;102134.41;5093499;28;19916;-49
2023/04/08 02:38:48;;;;;;;;;;;;;;;12.09;100.00;102135.91;5094456;28;19945;-56
2023/04/08 02:41:15;;;;;;;;;;;;;;;12.07;100.00;102142.44;5094080;28;20007;-53
2023/04/08 02:43:41;;;;;;;;;;;;;;;12.06;100.00;102141.63;5093587;28;19924;-52
2023/04/08 02:46:07;;;;;;;;;;;;;;;12.11;100.00;102146.44;5092093;28;19963;-53
2023/04/08 02:48:34;;;;;;;;;;;;;;;12.08;100.00;102147.66;5093426;28;19979;-52
2023/04/08 02:51:00;;;;;;;;;;;;;;;12.13;100.00;102147.97;5093880;28;19927;-52
2023/04/08 02:53:26;;;;;;;;;;;;;;;12.15;100.00;102143.25;5094984;28;19927;-56
2023/04/08 02:55:51;;;;;;;;;;;;;;;12.15;100.00;102148.63;5093020;28;19983;-55
2023/04/08 02:58:17;;;;;;;;;;;;;;;12.16;100.00;102152.97;5093934;28;19980;-53
2023/04/08 03:00:42;;;;;;;;;;;;;;;12.07;100.00;102148.66;5093072;28;20015;-51
2023/04/08 03:03:08;;;;;;;;;;;;;;;12.06;100.00;102152.34;5094402;28;19916;-55
2023/04/08 03:05:33;;;;;;;;;;;;;;;11.90;100.00;102150.53;5094307;28;19942;-51
2023/04/08 03:07:59;;;;;;;;;;;;;;;11.79;100.00;102156.25;5095000;28;19916;-52
2023/04/08 03:10:24;;;;;;;;;;;;;;;11.84;100.00;102169.97;5093740;28;20210;-52
2023/04/08 03:12:50;;;;;;;;;;;;;;;11.73;100.00;102163.97;5094427;28;20382;-54
2023/04/08 03:15:15;;;;;;;;;;;;;;;11.73;100.00;102161.28;5094117;28;19923;-56
2023/04/08 03:17:41;;;;;;;;;;;;;;;11.70;100.00;102163.47;5093844;28;19916;-51
2023/04/08 03:20:06;;;;;;;;;;;;;;;11.55;100.00;102166.84;5093532;28;19939;-58
2023/04/08 03:22:32;;;;;;;;;;;;;;;11.52;100.00;102161.81;5094602;28;19931;-54
2023/04/08 03:24:57;;;;;;;;;;;;;;;11.48;100.00;102164.00;5094365;28;19916;-56
2023/04/08 03:27:23;;;;;;;;;;;;;;;11.55;100.00;102160.66;5094828;28;19916;-56
2023/04/08 03:29:48;;;;;;;;;;;;;;;11.55;100.00;102166.00;5093461;28;19917;-54
2023/04/08 03:32:14;;;;;;;;;;;;;;;11.53;100.00;102168.00;5094822;28;19952;-56
2023/04/08 03:34:40;;;;;;;;;;;;;;;11.45;100.00;102171.53;5094463;28;19921;-54
2023/04/08 03:37:05;;;;;;;;;;;;;;;11.44;100.00;102167.19;5093638;28;19934;-55
2023/04/08 03:39:31;;;;;;;;;;;;;;;11.43;100.00;102170.88;5093291;28;19924;-55
2023/04/08 03:41:58;;;;;;;;;;;;;;;11.39;100.00;102167.69;5094466;28;19917;-53
2023/04/08 03:44:24;;;;;;;;;;;;;;;11.39;100.00;102170.34;5093197;28;19951;-56
2023/04/08 03:46:49;;;;;;;;;;;;;;;11.38;100.00;102176.72;5093587;28;19929;-56
2023/04/08 03:49:15;;;;;;;;;;;;;;;11.46;100.00;102182.09;5094016;28;19991;-56
2023/04/08 03:51:40;;;;;;;;;;;;;;;11.39;100.00;102181.06;5094310;28;19927;-55
2023/04/08 03:54:06;;;;;;;;;;;;;;;11.44;100.00;102175.22;5094122;28;19916;-57
2023/04/08 03:56:32;;;;;;;;;;;;;;;11.39;100.00;102183.75;5094126;28;19980;-53
2023/04/08 03:58:57;;;;;;;;;;;;;;;11.37;100.00;102182.25;5094251;28;19928;-56
2023/04/08 04:01:23;;;;;;;;;;;;;;;11.38;100.00;102183.94;5094117;28;19938;-56
2023/04/08 04:03:48;;;;;;;;;;;;;;;11.32;100.00;102188.97;5093814;28;19980;-49
2023/04/08 04:06:14;;;;;;;;;;;;;;;11.33;100.00;102179.91;5093850;28;19921;-55
2023/04/08 04:08:39;;;;;;;;;;;;;;;11.37;100.00;102184.94;5093756;28;19928;-52
2023/04/08 04:11:05;;;;;;;;;;;;;;;11.42;100.00;102190.63;5093888;28;19923;-54
2023/04/08 04:13:30;;;;;;;;;;;;;;;11.41;100.00;102197.81;5093724;28;19916;-56
2023/04/08 04:15:56;;;;;;;;;;;;;;;11.39;100.00;102199.00;5093712;28;19917;-52
2023/04/08 04:18:21;;;;;;;;;;;;;;;11.33;100.00;102201.34;5092408;28;19923;-55
2023/04/08 04:20:47;;;;;;;;;;;;;;;11.26;100.00;102203.00;5093788;28;19916;-55
2023/04/08 04:23:12;;;;;;;;;;;;;;;11.45;100.00;102196.50;5093328;28;19935;-57
2023/04/08 04:25:40;;;;;;;;;;;;;;;11.38;100.00;102203.50;5093040;28;20260;-56
2023/04/08 04:28:05;;;;;;;;;;;;;;;11.42;100.00;102204.03;5092360;28;19924;-54
2023/04/08 04:30:31;;;;;;;;;;;;;;;11.41;100.00;102207.69;5093597;28;19995;-53
2023/04/08 04:32:56;;;;;;;;;;;;;;;11.40;100.00;102206.84;5093674;28;19920;-51
2023/04/08 04:35:22;;;;;;;;;;;;;;;11.35;100.00;102213.72;5093717;28;19916;-51
2023/04/08 04:37:49;;;;;;;;;;;;;;;11.26;100.00;102216.38;5093542;28;19928;-52
2023/04/08 04:40:14;;;;;;;;;;;;;;;11.15;100.00;102214.88;5093456;28;19913;-53
2023/04/08 04:42:40;;;;;;;;;;;;;;;11.28;100.00;102214.38;5093212;28;19932;-54
2023/04/08 04:45:06;;;;;;;;;;;;;;;11.33;100.00;102227.28;5093444;28;19943;-54
2023/04/08 04:47:32;;;;;;;;;;;;;;;11.33;100.00;102225.44;5093374;28;19916;-54
2023/04/08 04:49:58;;;;;;;;;;;;;;;11.32;100.00;102222.94;5092973;28;19925;-54
2023/04/08 04:52:23;;;;;;;;;;;;;;;11.29;100.00;102226.75;5093277;28;19951;-49
2023/04/08 04:54:48;;;;;;;;;;;;;;;11.35;100.00;102224.44;5093363;28;19917;-49
2023/04/08 04:57:13;;;;;;;;;;;;;;;11.37;100.00;102235.84;5093060;28;19939;-54
2023/04/08 04:59:39;;;;;;;;;;;;;;;11.28;100.00;102235.81;5093274;28;19992;-56
2023/04/08 05:02:04;;;;;;;;;;;;;;;11.12;100.00;102233.94;5093345;28;19917;-52
2023/04/08 05:04:30;;;;;;;;;;;;;;;11.30;100.00;102239.19;5093116;28;19944;-52
2023/04/08 05:06:57;;;;;;;;;;;;;;;11.29;100.00;102239.34;5092990;28;19920;-52
2023/04/08 05:09:23;;;;;;;;;;;;;;;11.45;100.00;102242.03;5093054;28;19916;-55
2023/04/08 05:11:49;;;;;;;;;;;;;;;11.32;100.00;102239.00;5093247;28;19928;-52
2023/04/08 05:14:15;;;;;;;;;;;;;;;11.02;100.00;102231.41;5093189;28;19939;-53
2023/04/08 05:16:40;;;;;;;;;;;;;;;11.06;100.00;102245.31;5092789;28;19916;-52
2023/04/08 05:19:06;;;;;;;;;;;;;;;11.08;100.00;102242.50;5093136;28;19966;-53
2023/04/08 05:21:31;;;;;;;;;;;;;;;11.19;100.00;102247.53;5093177;28;19916;-56
2023/04/08 05:23:56;;;;;;;;;;;;;;;11.04;100.00;102250.00;5092780;28;20075;-54
2023/04/08 05:26:22;;;;;;;;;;;;;;;11.10;100.00;102259.22;5092851;28;19921;-56
2023/04/08 05:28:48;;;;;;;;;;;;;;;10.88;100.00;102254.31;5093011;28;19920;-54
2023/04/08 05:31:18;;;;;;;;;;;;;;;10.95;100.00;102265.19;5091745;28;19924;-55
2023/04/08 05:33:43;;;;;;;;;;;;;;;10.93;100.00;102261.00;5092995;28;19916;-54
2023/04/08 05:36:12;;;;;;;;;;;;;;;10.74;100.00;102261.13;5093417;28;19947;-56
2023/04/08 05:38:38;;;;;;;;;;;;;;;10.44;100.00;102266.00;5095988;28;19920;-53
2023/04/08 05:41:03;;;;;;;;;;;;;;;10.84;100.00;102266.34;5096681;28;19943;-54
2023/04/08 05:43:31;;;;;;;;;;;;;;;10.90;100.00;102268.34;5096847;28;19920;-55
2023/04/08 05:45:56;;;;;;;;;;;;;;;11.00;100.00;102281.59;5095891;28;20003;-56
2023/04/08 05:48:22;;;;;;;;;;;;;;;10.95;100.00;102275.91;5096659;28;20038;-56
2023/04/08 05:50:47;;;;;;;;;;;;;;;10.90;100.00;102271.03;5095886;28;19917;-57
2023/04/08 05:53:13;;;;;;;;;;;;;;;10.92;100.00;102272.72;5096671;28;19966;-53
2023/04/08 05:55:39;;;;;;;;;;;;;;;10.79;100.00;102278.53;5096419;28;19936;-52
2023/04/08 05:58:04;;;;;;;;;;;;;;;10.98;100.00;102277.44;5096622;28;19920;-57
2023/04/08 06:00:31;;;;;;;;;;;;;;;10.95;100.00;102278.59;5096613;28;19920;-55
2023/04/08 06:02:56;;;;;;;;;;;;;;;10.93;100.00;102280.59;5096502;28;19920;-55
2023/04/08 06:05:22;;;;;;;;;;;;;;;10.76;100.00;102280.53;5095239;28;19920;-54
2023/04/08 06:07:47;;;;;;;;;;;;;;;10.94;100.00;102282.25;5096452;28;19916;-53
2023/04/08 06:10:13;;;;;;;;;;;;;;;11.07;100.00;102278.28;5096290;28;19933;-54
2023/04/08 06:12:39;;;;;;;;;;;;;;;11.09;100.00;102284.31;5096820;28;19920;-52
2023/04/08 06:15:05;;;;;;;;;;;;;;;11.18;100.00;102283.34;5096740;28;19959;-56
2023/04/08 06:17:30;;;;;;;;;;;;;;;11.20;100.00;102292.03;5096838;28;19920;-54
2023/04/08 06:19:56;;;;;;;;;;;;;;;11.24;100.00;102290.69;5096472;28;19917;-56
2023/04/08 06:22:21;;;;;;;;;;;;;;;11.27;100.00;102305.63;5096558;28;19924;-55
2023/04/08 06:24:47;;;;;;;;;;;;;;;11.30;100.00;102300.78;5096531;28;19920;-56
2023/04/08 06:27:12;;;;;;;;;;;;;;;11.46;100.00;102308.00;5096765;28;19956;-54
2023/04/08 06:29:38;;;;;;;;;;;;;;;11.50;100.00;102302.31;5095698;28;19924;-53
2023/04/08 06:32:04;;;;;;;;;;;;;;;11.47;100.00;102319.53;5096518;28;20001;-56
2023/04/08 06:34:30;;;;;;;;;;;;;;;11.58;100.00;102316.56;5096279;28;19920;-56
2023/04/08 06:36:55;;;;;;;;;;;;;;;11.60;100.00;102311.88;5096303;28;19935;-53
2023/04/08 06:39:20;;;;;;;;;;;;;;;11.73;100.00;102318.56;5095866;28;20003;-56
2023/04/08 06:41:45;;;;;;;;;;;;;;;11.64;100.00;102327.59;5096100;28;19931;-53
2023/04/08 06:44:26;;;;;;;;;;;;;;;11.65;100.00;102327.44;5093582;28;19921;-51
2023/04/08 06:46:51;;;;;;;;;;;;;;;11.71;100.00;102325.94;5096103;28;19996;-51
2023/04/08 06:49:16;;;;;;;;;;;;;;;11.81;100.00;102323.09;5092953;28;19942;-53
2023/04/08 06:51:42;;;;;;;;;;;;;;;11.86;100.00;102332.31;5096049;28;19955;-53
2023/04/08 06:54:08;;;;;;;;;;;;;;;11.89;100.00;102328.47;5095640;28;19924;-52
2023/04/08 06:56:35;;;;;;;;;;;;;;;11.79;100.00;102330.47;5095961;28;19927;-52
2023/04/08 06:59:00;;;;;;;;;;;;;;;11.64;100.00;102332.97;5095531;28;19944;-55
2023/04/08 07:01:26;;;;;;;;;;;;;;;11.65;100.00;102331.97;5095644;28;19924;-51
2023/04/08 07:03:51;;;;;;;;;;;;;;;11.80;100.00;102341.03;5095779;28;19917;-51
2023/04/08 07:06:17;;;;;;;;;;;;;;;11.76;100.00;102343.19;5094382;28;19947;-52
2023/04/08 07:08:42;;;;;;;;;;;;;;;11.75;100.00;102349.56;5095499;28;19920;-52
2023/04/08 07:11:08;;;;;;;;;;;;;;;11.59;100.00;102349.53;5095661;28;19977;-54
2023/04/08 07:13:33;;;;;;;;;;;;;;;11.80;100.00;102351.75;5094602;28;19951;-54
2023/04/08 07:16:00;;;;;;;;;;;;;;;11.82;100.00;102349.75;5095384;28;19924;-54
2023/04/08 07:18:25;;;;;;;;;;;;;;;11.85;100.00;102376.22;5094733;28;19951;-52
2023/04/08 07:20:55;;;;;;;;;;;;;;;12.02;100.00;102376.25;5092035;28;20278;-55
2023/04/08 07:23:21;;;;;;;;;;;;;;;12.01;100.00;102370.03;5094523;28;19916;-51
2023/04/08 07:25:47;;;;;;;;;;;;;;;11.63;100.00;102372.31;5094808;28;19924;-54
2023/04/08 07:28:12;;;;;;;;;;;;;;;11.72;100.00;102378.53;5093474;28;19916;-57
2023/04/08 07:30:38;;;;;;;;;;;;;;;11.96;100.00;102369.69;5094897;28;19916;-52
2023/04/08 07:33:03;;;;;;;;;;;;;;;12.01;100.00;102374.59;5094326;28;19983;-53
2023/04/08 07:35:30;;;;;;;;;;;;;;;12.09;100.00;102379.94;5093984;28;19917;-54
2023/04/08 07:37:56;;;;;;;;;;;;;;;12.10;100.00;102384.28;5094783;28;19946;-52
2023/04/08 07:40:22;;;;;;;;;;;;;;;11.90;100.00;102387.25;5094230;28;19916;-54
2023/04/08 07:42:48;;;;;;;;;;;;;;;11.94;100.00;102395.81;5093533;28;19920;-53
2023/04/08 07:45:13;;;;;;;;;;;;;;;12.14;100.00;102391.00;5094049;28;19917;-53
2023/04/08 07:47:39;;;;;;;;;;;;;;;12.22;100.00;102392.84;5094146;28;19984;-52
2023/04/08 07:50:04;;;;;;;;;;;;;;;12.27;100.00;102395.03;5093961;28;19917;-53
2023/04/08 07:52:30;;;;;;;;;;;;;;;12.42;100.00;102401.38;5094234;28;19927;-52
2023/04/08 07:54:55;;;;;;;;;;;;;;;12.54;100.00;102399.16;5094263;28;19927;-57
2023/04/08 07:57:20;;;;;;;;;;;;;;;12.61;100.00;102402.00;5094158;28;20008;-52
2023/04/08 07:59:46;;;;;;;;;;;;;;;12.67;100.00;102395.13;5093425;28;20251;-52
2023/04/08 08:02:12;;;;;;;;;;;;;;;12.46;100.00;102400.03;5092828;28;19917;-54
2023/04/08 08:04:37;;;;;;;;;;;;;;;12.54;100.00;102401.03;5093645;28;19913;-52
2023/04/08 08:07:02;;;;;;;;;;;;;;;12.52;100.00;102397.69;5093999;28;19959;-52
2023/04/08 08:09:28;;;;;;;;;;;;;;;12.48;100.00;102394.50;5093443;28;19935;-54
2023/04/08 08:11:54;;;;;;;;;;;;;;;12.63;100.00;102400.00;5093857;28;19977;-52
2023/04/08 08:14:20;;;;;;;;;;;;;;;12.70;100.00;102398.31;5093698;28;19916;-52
2023/04/08 08:16:47;;;;;;;;;;;;;;;12.84;100.00;102399.47;5093811;28;19992;-50
2023/04/08 08:19:13;;;;;;;;;;;;;;;13.16;100.00;102402.22;5093872;28;19916;-50
2023/04/08 08:21:39;;;;;;;;;;;;;;;12.89;100.00;102407.81;5092957;28;19939;-55
2023/04/08 08:24:04;;;;;;;;;;;;;;;13.12;100.00;102414.28;5094074;28;19917;-55
2023/04/08 08:26:30;;;;;;;;;;;;;;;13.28;100.00;102411.53;5093723;28;19924;-53
2023/04/08 08:28:55;;;;;;;;;;;;;;;13.33;100.00;102411.03;5094123;28;19954;-52
2023/04/08 08:31:21;;;;;;;;;;;;;;;13.54;100.00;102407.75;5092708;28;19935;-54
2023/04/08 08:33:46;;;;;;;;;;;;;;;13.79;100.00;102415.66;5093942;28;19930;-54
2023/04/08 08:36:13;;;;;;;;;;;;;;;13.73;100.00;102419.06;5092605;28;19916;-51
2023/04/08 08:38:39;;;;;;;;;;;;;;;13.99;100.00;102423.25;5092564;28;19917;-53
2023/04/08 08:41:05;;;;;;;;;;;;;;;14.03;100.00;102414.66;5093787;28;19951;-50
2023/04/08 08:43:32;;;;;;;;;;;;;;;14.30;100.00;102417.78;5093888;28;19992;-55
2023/04/08 08:45:58;;;;;;;;;;;;;;;14.32;100.00;102426.53;5093624;28;19986;-53
2023/04/08 08:48:23;;;;;;;;;;;;;;;13.87;100.00;102433.59;5092889;28;19917;-53
2023/04/08 08:50:49;;;;;;;;;;;;;;;14.24;100.00;102431.13;5092033;28;19916;-53
2023/04/08 08:53:15;;;;;;;;;;;;;;;14.58;100.00;102422.56;5091894;28;19961;-54
2023/04/08 08:55:40;;;;;;;;;;;;;;;14.79;100.00;102428.31;5092176;28;19919;-54
2023/04/08 08:58:09;;;;;;;;;;;;;;;14.88;100.00;102425.34;5090274;28;19916;-54
2023/04/08 09:00:39;;;;;;;;;;;;;;;15.18;100.00;102433.41;5091949;28;19924;-52
2023/04/08 09:03:15;;;;;;;;;;;;;;;15.54;100.00;102433.63;5092131;28;19924;-57
2023/04/08 09:05:51;;;;;;;;;;;;;;;15.73;100.00;102432.19;5093121;28;19975;-54
2023/04/08 09:08:23;;;;;;;;;;;;;;;15.75;100.00;102436.34;5093751;28;19917;-54
2023/04/08 09:10:48;;;;;;;;;;;;;;;15.82;100.00;102439.13;5091150;28;19916;-56
2023/04/08 09:13:14;;;;;;;;;;;;;;;16.21;100.00;102439.72;5092136;28;20064;-54
2023/04/08 09:15:59;;;;;;;;;;;;;;;16.73;100.00;102444.94;5093524;28;19931;-52
2023/04/08 09:18:25;;;;;;;;;;;;;;;16.94;100.00;102435.91;5093411;28;20374;-55
2023/04/08 09:20:51;;;;;;;;;;;;;;;17.50;100.00;102442.22;5091188;28;19928;-55
2023/04/08 09:23:16;;;;;;;;;;;;;;;17.78;98.72;102443.97;5093311;28;19917;-52
2023/04/08 09:25:42;;;;;;;;;;;;;;;18.41;95.77;102441.97;5093517;28;19956;-54
2023/04/08 09:28:19;;;;;;;;;;;;;;;19.37;89.35;102455.09;5093178;28;19916;-51
2023/04/08 09:30:46;;;;;;;;;;;;;;;19.54;85.16;102455.47;5092154;28;19969;-56
2023/04/08 09:33:12;;;;;;;;;;;;;;;20.30;83.15;102461.88;5093109;28;19916;-52
2023/04/08 09:35:37;;;;;;;;;;;;;;;20.22;81.47;102461.31;5092849;28;19926;-51
2023/04/08 09:38:02;;;;;;;;;;;;;;;20.75;78.62;102455.41;5092945;28;19952;-54
2023/04/08 09:40:31;;;;;;;;;;;;;;;20.96;76.24;102450.59;5092142;28;19984;-57
2023/04/08 09:42:58;;;;;;;;;;;;;;;21.68;73.71;102453.72;5092536;28;19936;-54
2023/04/08 09:45:24;;;;;;;;;;;;;;;22.27;70.48;102463.94;5092362;28;19924;-57
2023/04/08 09:47:57;;;;;;;;;;;;;;;22.61;66.66;102465.03;5092704;28;19920;-55
2023/04/08 09:50:27;;;;;;;;;;;;;;;23.42;64.19;102463.50;5092636;28;19948;-56
2023/04/08 09:52:56;;;;;;;;;;;;;;;23.45;62.43;102465.75;5093037;28;19916;-57
2023/04/08 09:55:22;;;;;;;;;;;;;;;23.85;60.27;102466.75;5090684;28;19939;-52
2023/04/08 09:57:54;;;;;;;;;;;;;;;23.89;58.77;102470.63;5092731;28;19942;-57
2023/04/08 10:00:21;;;;;;;;;;;;;;;23.97;58.82;102469.41;5091041;28;19916;-54
2023/04/08 10:03:06;;;;;;;;;;;;;;;24.17;57.64;102470.88;5092537;28;19927;-58
2023/04/08 10:05:33;;;;;;;;;;;;;;;24.48;57.26;102474.06;5091853;28;19920;-57
2023/04/08 10:07:59;;;;;;;;;;;;;;;25.55;53.50;102467.53;5090990;28;19935;-56
2023/04/08 10:10:25;;;;;;;;;;;;;;;25.35;54.40;102471.69;5091578;28;19920;-57
2023/04/08 10:12:50;;;;;;;;;;;;;;;25.92;51.22;102468.72;5092347;28;19916;-53
2023/04/08 10:15:26;;;;;;;;;;;;;;;26.10;49.10;102474.91;5092352;28;19916;-53
2023/04/08 10:17:53;;;;;;;;;;;;;;;26.50;47.63;102470.84;5092056;28;19983;-57
2023/04/08 10:20:37;;;;;;;;;;;;;;;26.06;47.09;102469.09;5092370;28;19946;-55
2023/04/08 10:23:03;;;;;;;;;;;;;;;26.91;45.66;102464.78;5090938;28;19923;-57
2023/04/08 10:25:32;;;;;;;;;;;;;;;27.24;45.10;102459.97;5095963;28;19921;-53
2023/04/08 10:28:21;;;;;;;;;;;;;;;27.16;44.94;102457.72;5096637;28;19927;-57
2023/04/08 10:30:47;;;;;;;;;;;;;;;27.94;42.20;102460.66;5095416;28;19912;-58
2023/04/08 10:33:14;;;;;;;;;;;;;;;27.88;41.91;102457.06;5096191;28;19979;-55
2023/04/08 10:35:46;;;;;;;;;;;;;;;28.53;41.14;102463.91;5095572;28;19942;-59
2023/04/08 10:38:12;;;;;;;;;;;;;;;28.81;40.50;102456.13;5093746;28;19916;-54
2023/04/08 10:40:40;;;;;;;;;;;;;;;28.60;40.69;102457.00;5095822;28;19942;-53
2023/04/08 10:43:06;;;;;;;;;;;;;;;29.19;37.97;102445.50;5096424;28;20011;-57
2023/04/08 10:45:32;;;;;;;;;;;;;;;29.43;36.91;102447.59;5096166;28;19920;-54
2023/04/08 10:48:12;;;;;;;;;;;;;;;29.08;37.91;102439.22;5096014;28;19952;-53
2023/04/08 10:50:38;;;;;;;;;;;;;;;29.28;38.61;102441.03;5095565;28;19926;-55
2023/04/08 10:53:06;;;;;;;;;;;;;;;29.65;37.41;102440.81;5096044;28;19928;-56
2023/04/08 10:55:32;;;;;;;;;;;;;;;30.59;36.16;102447.13;5095389;28;19916;-54
2023/04/08 10:58:08;;;;;;;;;;;;;;;30.28;36.10;102441.97;5096039;28;19976;-57
2023/04/08 11:00:35;;;;;;;;;;;;;;;30.59;35.76;102450.72;5093938;28;19916;-59
2023/04/08 11:03:05;;;;;;;;;;;;;;;30.95;34.94;102446.72;5095570;28;19947;-53
2023/04/08 11:05:31;;;;;;;;;;;;;;;31.31;34.01;102443.47;5095343;28;19928;-57
2023/04/08 11:08:00;;;;;;;;;;;;;;;31.32;34.52;102441.53;5095348;28;19920;-57
2023/04/08 11:10:26;;;;;;;;;;;;;;;31.95;32.49;102441.38;5095387;28;19916;-59
2023/04/08 11:12:55;;;;;;;;;;;;;;;31.85;31.76;102436.84;5095405;28;19924;-58
2023/04/08 11:15:24;;;;;;;;;;;;;;;32.08;35.01;102439.78;5095616;28;19939;-57
2023/04/08 11:17:50;;;;;;;;;;;;;;;32.18;31.45;102437.63;5095364;28;19931;-63
2023/04/08 11:20:16;;;;;;;;;;;;;;;32.03;30.61;102438.75;5095341;28;19916;-59
2023/04/08 11:22:43;;;;;;;;;;;;;;;32.17;30.53;102437.94;5095299;28;19920;-57
2023/04/08 11:25:09;;;;;;;;;;;;;;;32.59;29.94;102432.47;5095290;28;19936;-59
2023/04/08 11:27:36;;;;;;;;;;;;;;;33.13;29.89;102440.19;5094920;28;19945;-56
2023/04/08 11:30:03;;;;;;;;;;;;;;;33.53;30.99;102439.56;5095105;28;19928;-57
2023/04/08 11:32:29;;;;;;;;;;;;;;;34.02;28.90;102442.50;5095222;28;19916;-58
2023/04/08 11:34:54;;;;;;;;;;;;;;;33.52;28.11;102441.53;5094663;28;19916;-57
2023/04/08 11:37:24;;;;;;;;;;;;;;;34.14;28.15;102434.41;5094788;28;19920;-58
2023/04/08 11:39:49;;;;;;;;;;;;;;;34.52;27.10;102435.88;5094173;28;19942;-59
2023/04/08 11:42:27;;;;;;;;;;;;;;;34.26;26.48;102441.31;5073300;28;19921;-58
2023/04/08 11:44:53;;;;;;;;;;;;;;;34.41;26.03;102437.28;5072987;28;19948;-57
2023/04/08 11:47:19;;;;;;;;;;;;;;;34.31;25.74;102432.81;5065783;28;19958;-60
2023/04/08 11:49:45;;;;;;;;;;;;;;;34.79;25.36;102438.72;5074045;28;19917;-59
2023/04/08 11:52:10;;;;;;;;;;;;;;;34.64;25.40;102435.25;5073502;28;19920;-58
2023/04/08 11:54:40;;;;;;;;;;;;;;;34.74;26.42;102426.63;5071320;28;19924;-58
2023/04/08 11:57:06;;;;;;;;;;;;;;;34.51;25.15;102431.47;5074065;28;19932;-58
2023/04/08 11:59:31;;;;;;;;;;;;;;;34.92;25.03;102440.53;5074218;28;19921;-59
2023/04/08 12:01:57;;;;;;;;;;;;;;;35.07;27.74;102435.69;5073787;28;19917;-55
2023/04/08 12:04:23;;;;;;;;;;;;;;;34.78;25.33;102431.50;5071816;28;19917;-59
2023/04/08 12:06:48;;;;;;;;;;;;;;;36.16;23.48;102425.34;5073773;28;19926;-59
2023/04/08 12:09:14;;;;;;;;;;;;;;;35.91;24.17;102423.47;5073994;28;19924;-57
2023/04/08 12:11:41;;;;;;;;;;;;;;;35.58;23.39;102428.47;5074072;28;19980;-57
2023/04/08 12:14:07;;;;;;;;;;;;;;;35.45;24.19;102427.50;5073926;28;19916;-59
2023/04/08 12:16:32;;;;;;;;;;;;;;;35.51;24.66;102421.75;5075711;28;19967;-58
2023/04/08 12:18:58;;;;;;;;;;;;;;;35.88;23.07;102417.41;5073507;28;19917;-57
2023/04/08 12:21:23;;;;;;;;;;;;;;;35.66;23.83;102417.66;5073770;28;19917;-57
2023/04/08 12:23:49;;;;;;;;;;;;;;;34.22;23.94;102424.47;5073536;28;19917;-58
2023/04/08 12:26:15;;;;;;;;;;;;;;;33.79;23.51;102413.94;5073428;28;19924;-59